sensor_id;sensor_type;location;lat;lon;timestamp;pressure;altitude;pressure_sealevel;temperature;humidity
34328;BME280;20588;48.840;10.064;2023-09-30T00:00:58;97254.75;;;16.32;100.00
34328;BME280;20588;48.840;10.064;2023-09-30T00:03:24;97257.50;;;16.25;100.00
34328;BME280;20588;48.840;10.064;2023-09-30T00:05:50;97267.41;;;16.16;100.00
34328;BME280;20588;48.840;10.064;2023-09-30T00:08:16;97265.28;;;16.13;100.00
34328;BME280;20588;48.840;10.064;2023-09-30T00:10:42;97266.06;;;16.14;100.00
34328;BME280;20588;48.840;10.064;2023-09-30T00:13:08;97264.28;;;16.14;100.00
34328;BME280;20588;48.840;10.064;2023-09-30T00:15:35;97270.59;;;16.18;100.00
34328;BME280;20588;48.840;10.064;2023-09-30T00:18:01;97266.50;;;16.22;100.00
34328;BME280;20588;48.840;10.064;2023-09-30T00:20:28;97266.06;;;16.25;100.00
34328;BME280;20588;48.840;10.064;2023-09-30T00:22:54;97262.78;;;16.30;100.00
34328;BME280;20588;48.840;10.064;2023-09-30T00:25:20;97262.91;;;16.35;100.00
34328;BME280;20588;48.840;10.064;2023-09-30T00:27:49;97258.03;;;16.39;100.00
34328;BME280;20588;48.840;10.064;2023-09-30T00:30:15;97263.56;;;16.42;100.00
34328;BME280;20588;48.840;10.064;2023-09-30T00:32:41;97258.72;;;16.46;100.00
34328;BME280;20588;48.840;10.064;2023-09-30T00:35:08;97255.91;;;16.47;100.00
34328;BME280;20588;48.840;10.064;2023-09-30T00:37:38;97250.47;;;16.49;100.00
34328;BME280;20588;48.840;10.064;2023-09-30T00:40:05;97250.03;;;16.52;100.00
34328;BME280;20588;48.840;10.064;2023-09-30T00:42:32;97251.28;;;16.49;100.00
34328;BME280;20588;48.840;10.064;2023-09-30T00:44:58;97246.31;;;16.48;100.00
34328;BME280;20588;48.840;10.064;2023-09-30T00:47:24;97251.75;;;16.46;100.00
34328;BME280;20588;48.840;10.064;2023-09-30T00:49:52;97249.22;;;16.40;100.00
34328;BME280;20588;48.840;10.064;2023-09-30T00:52:22;97248.09;;;16.36;100.00
34328;BME280;20588;48.840;10.064;2023-09-30T00:54:49;97245.63;;;16.29;100.00
34328;BME280;20588;48.840;10.064;2023-09-30T00:57:17;97246.75;;;16.21;100.00
34328;BME280;20588;48.840;10.064;2023-09-30T00:59:45;97253.66;;;16.16;100.00
34328;BME280;20588;48.840;10.064;2023-09-30T01:02:12;97248.13;;;16.12;100.00
34328;BME280;20588;48.840;10.064;2023-09-30T01:04:38;97251.16;;;16.09;100.00
34328;BME280;20588;48.840;10.064;2023-09-30T01:07:06;97249.34;;;16.10;100.00
34328;BME280;20588;48.840;10.064;2023-09-30T01:09:32;97243.16;;;16.11;100.00
34328;BME280;20588;48.840;10.064;2023-09-30T01:11:59;97245.97;;;16.09;100.00
34328;BME280;20588;48.840;10.064;2023-09-30T01:14:33;97248.56;;;16.09;100.00
34328;BME280;20588;48.840;10.064;2023-09-30T01:17:08;97256.00;;;16.06;100.00
34328;BME280;20588;48.840;10.064;2023-09-30T01:19:35;97249.47;;;16.03;100.00
34328;BME280;20588;48.840;10.064;2023-09-30T01:22:01;97240.09;;;16.02;100.00
34328;BME280;20588;48.840;10.064;2023-09-30T01:24:37;97251.72;;;16.00;100.00
34328;BME280;20588;48.840;10.064;2023-09-30T01:27:04;97256.91;;;16.00;100.00
34328;BME280;20588;48.840;10.064;2023-09-30T01:29:30;97254.53;;;15.98;100.00
34328;BME280;20588;48.840;10.064;2023-09-30T01:31:56;97250.91;;;15.99;100.00
34328;BME280;20588;48.840;10.064;2023-09-30T01:34:22;97254.53;;;15.98;100.00
34328;BME280;20588;48.840;10.064;2023-09-30T01:36:48;97254.09;;;16.01;100.00
34328;BME280;20588;48.840;10.064;2023-09-30T01:39:14;97262.47;;;16.03;100.00
34328;BME280;20588;48.840;10.064;2023-09-30T01:41:41;97271.59;;;16.06;100.00
34328;BME280;20588;48.840;10.064;2023-09-30T01:44:07;97272.38;;;16.06;100.00
34328;BME280;20588;48.840;10.064;2023-09-30T01:46:35;97268.09;;;16.12;100.00
34328;BME280;20588;48.840;10.064;2023-09-30T01:49:02;97263.69;;;16.12;100.00
34328;BME280;20588;48.840;10.064;2023-09-30T01:51:30;97270.25;;;16.15;100.00
34328;BME280;20588;48.840;10.064;2023-09-30T01:53:56;97269.00;;;16.17;100.00
34328;BME280;20588;48.840;10.064;2023-09-30T01:56:22;97264.81;;;16.16;100.00
34328;BME280;20588;48.840;10.064;2023-09-30T01:58:48;97263.03;;;16.17;100.00
34328;BME280;20588;48.840;10.064;2023-09-30T02:01:14;97275.19;;;16.16;100.00
34328;BME280;20588;48.840;10.064;2023-09-30T02:03:41;97271.84;;;16.16;100.00
34328;BME280;20588;48.840;10.064;2023-09-30T02:06:08;97271.63;;;16.17;100.00
34328;BME280;20588;48.840;10.064;2023-09-30T02:08:34;97270.00;;;16.16;100.00
34328;BME280;20588;48.840;10.064;2023-09-30T02:11:02;97267.75;;;16.20;100.00
34328;BME280;20588;48.840;10.064;2023-09-30T02:13:34;97271.38;;;16.19;100.00
34328;BME280;20588;48.840;10.064;2023-09-30T02:16:01;97261.69;;;16.14;100.00
34328;BME280;20588;48.840;10.064;2023-09-30T02:18:27;97265.50;;;16.12;100.00
34328;BME280;20588;48.840;10.064;2023-09-30T02:20:53;97272.50;;;16.11;100.00
34328;BME280;20588;48.840;10.064;2023-09-30T02:23:19;97264.16;;;16.09;100.00
34328;BME280;20588;48.840;10.064;2023-09-30T02:25:47;97269.34;;;16.09;100.00
34328;BME280;20588;48.840;10.064;2023-09-30T02:28:13;97282.31;;;16.09;100.00
34328;BME280;20588;48.840;10.064;2023-09-30T02:30:39;97275.53;;;16.08;100.00
34328;BME280;20588;48.840;10.064;2023-09-30T02:33:05;97277.59;;;16.06;100.00
34328;BME280;20588;48.840;10.064;2023-09-30T02:35:33;97278.81;;;16.04;100.00
34328;BME280;20588;48.840;10.064;2023-09-30T02:37:59;97280.63;;;16.03;100.00
34328;BME280;20588;48.840;10.064;2023-09-30T02:40:26;97291.03;;;16.03;100.00
34328;BME280;20588;48.840;10.064;2023-09-30T02:42:52;97286.06;;;16.02;100.00
34328;BME280;20588;48.840;10.064;2023-09-30T02:45:18;97293.25;;;16.00;100.00
34328;BME280;20588;48.840;10.064;2023-09-30T02:47:44;97294.28;;;15.99;100.00
34328;BME280;20588;48.840;10.064;2023-09-30T02:50:10;97300.69;;;15.96;100.00
34328;BME280;20588;48.840;10.064;2023-09-30T02:52:40;97299.69;;;15.97;100.00
34328;BME280;20588;48.840;10.064;2023-09-30T02:55:10;97305.91;;;15.96;100.00
34328;BME280;20588;48.840;10.064;2023-09-30T02:57:37;97295.72;;;15.95;100.00
34328;BME280;20588;48.840;10.064;2023-09-30T03:00:08;97281.41;;;15.92;100.00
34328;BME280;20588;48.840;10.064;2023-09-30T03:02:53;97296.41;;;15.90;100.00
34328;BME280;20588;48.840;10.064;2023-09-30T03:05:20;97301.81;;;15.89;100.00
34328;BME280;20588;48.840;10.064;2023-09-30T03:07:46;97309.84;;;15.87;100.00
34328;BME280;20588;48.840;10.064;2023-09-30T03:10:13;97311.66;;;15.87;100.00
34328;BME280;20588;48.840;10.064;2023-09-30T03:12:56;97315.69;;;15.83;100.00
34328;BME280;20588;48.840;10.064;2023-09-30T03:15:27;97314.91;;;15.82;100.00
34328;BME280;20588;48.840;10.064;2023-09-30T03:17:57;97311.75;;;15.80;100.00
34328;BME280;20588;48.840;10.064;2023-09-30T03:20:23;97320.56;;;15.79;100.00
34328;BME280;20588;48.840;10.064;2023-09-30T03:22:51;97312.41;;;15.76;100.00
34328;BME280;20588;48.840;10.064;2023-09-30T03:25:19;97314.78;;;15.77;100.00
34328;BME280;20588;48.840;10.064;2023-09-30T03:27:46;97320.41;;;15.74;100.00
34328;BME280;20588;48.840;10.064;2023-09-30T03:30:14;97315.44;;;15.73;100.00
34328;BME280;20588;48.840;10.064;2023-09-30T03:32:41;97315.69;;;15.71;100.00
34328;BME280;20588;48.840;10.064;2023-09-30T03:35:09;97317.69;;;15.69;100.00
34328;BME280;20588;48.840;10.064;2023-09-30T03:37:43;97304.63;;;15.64;100.00
34328;BME280;20588;48.840;10.064;2023-09-30T03:40:11;97308.88;;;15.59;100.00
34328;BME280;20588;48.840;10.064;2023-09-30T03:42:40;97320.94;;;15.53;100.00
34328;BME280;20588;48.840;10.064;2023-09-30T03:45:11;97309.97;;;15.51;100.00
34328;BME280;20588;48.840;10.064;2023-09-30T03:47:40;97310.84;;;15.45;100.00
34328;BME280;20588;48.840;10.064;2023-09-30T03:50:07;97305.13;;;15.43;100.00
34328;BME280;20588;48.840;10.064;2023-09-30T03:52:40;97311.28;;;15.42;100.00
34328;BME280;20588;48.840;10.064;2023-09-30T03:55:13;97312.91;;;15.43;100.00
34328;BME280;20588;48.840;10.064;2023-09-30T03:57:40;97311.28;;;15.42;100.00
34328;BME280;20588;48.840;10.064;2023-09-30T04:00:07;97325.06;;;15.43;100.00
34328;BME280;20588;48.840;10.064;2023-09-30T04:02:37;97320.69;;;15.43;100.00
34328;BME280;20588;48.840;10.064;2023-09-30T04:05:03;97320.25;;;15.46;100.00
34328;BME280;20588;48.840;10.064;2023-09-30T04:07:31;97320.00;;;15.48;100.00
34328;BME280;20588;48.840;10.064;2023-09-30T04:09:58;97305.81;;;15.50;100.00
34328;BME280;20588;48.840;10.064;2023-09-30T04:12:27;97306.81;;;15.49;100.00
34328;BME280;20588;48.840;10.064;2023-09-30T04:14:53;97313.38;;;15.52;100.00
34328;BME280;20588;48.840;10.064;2023-09-30T04:17:19;97315.16;;;15.51;100.00
34328;BME280;20588;48.840;10.064;2023-09-30T04:19:45;97313.16;;;15.53;100.00
34328;BME280;20588;48.840;10.064;2023-09-30T04:22:12;97303.56;;;15.54;100.00
34328;BME280;20588;48.840;10.064;2023-09-30T04:24:38;97304.78;;;15.51;100.00
34328;BME280;20588;48.840;10.064;2023-09-30T04:27:05;97311.56;;;15.52;100.00
34328;BME280;20588;48.840;10.064;2023-09-30T04:29:33;97318.34;;;15.53;100.00
34328;BME280;20588;48.840;10.064;2023-09-30T04:32:00;97306.81;;;15.49;100.00
34328;BME280;20588;48.840;10.064;2023-09-30T04:34:26;97323.38;;;15.48;100.00
34328;BME280;20588;48.840;10.064;2023-09-30T04:36:53;97327.81;;;15.48;100.00
34328;BME280;20588;48.840;10.064;2023-09-30T04:39:19;97327.81;;;15.48;100.00
34328;BME280;20588;48.840;10.064;2023-09-30T04:41:45;97326.19;;;15.47;100.00
34328;BME280;20588;48.840;10.064;2023-09-30T04:44:12;97337.38;;;15.47;100.00
34328;BME280;20588;48.840;10.064;2023-09-30T04:46:38;97345.38;;;15.46;100.00
34328;BME280;20588;48.840;10.064;2023-09-30T04:49:07;97335.59;;;15.48;100.00
34328;BME280;20588;48.840;10.064;2023-09-30T04:51:34;97346.72;;;15.48;100.00
34328;BME280;20588;48.840;10.064;2023-09-30T04:54:00;97342.94;;;15.51;100.00
34328;BME280;20588;48.840;10.064;2023-09-30T04:56:27;97334.34;;;15.50;100.00
34328;BME280;20588;48.840;10.064;2023-09-30T04:58:53;97339.97;;;15.47;100.00
34328;BME280;20588;48.840;10.064;2023-09-30T05:01:19;97341.66;;;15.42;100.00
34328;BME280;20588;48.840;10.064;2023-09-30T05:03:46;97344.88;;;15.37;100.00
34328;BME280;20588;48.840;10.064;2023-09-30T05:06:15;97339.75;;;15.31;100.00
34328;BME280;20588;48.840;10.064;2023-09-30T05:08:41;97339.84;;;15.24;100.00
34328;BME280;20588;48.840;10.064;2023-09-30T05:11:07;97335.53;;;15.18;100.00
34328;BME280;20588;48.840;10.064;2023-09-30T05:13:34;97330.78;;;15.15;100.00
34328;BME280;20588;48.840;10.064;2023-09-30T05:16:00;97337.63;;;15.10;100.00
34328;BME280;20588;48.840;10.064;2023-09-30T05:18:26;97349.63;;;15.04;100.00
34328;BME280;20588;48.840;10.064;2023-09-30T05:20:52;97344.88;;;15.01;100.00
34328;BME280;20588;48.840;10.064;2023-09-30T05:23:18;97356.72;;;14.97;100.00
34328;BME280;20588;48.840;10.064;2023-09-30T05:25:44;97350.59;;;14.92;100.00
34328;BME280;20588;48.840;10.064;2023-09-30T05:28:11;97342.47;;;14.88;100.00
34328;BME280;20588;48.840;10.064;2023-09-30T05:30:37;97340.50;;;14.84;100.00
34328;BME280;20588;48.840;10.064;2023-09-30T05:33:03;97341.53;;;14.83;100.00
34328;BME280;20588;48.840;10.064;2023-09-30T05:35:30;97354.13;;;14.79;100.00
34328;BME280;20588;48.840;10.064;2023-09-30T05:37:58;97366.28;;;14.79;100.00
34328;BME280;20588;48.840;10.064;2023-09-30T05:40:24;97369.88;;;14.78;100.00
34328;BME280;20588;48.840;10.064;2023-09-30T05:42:56;97369.06;;;14.77;100.00
34328;BME280;20588;48.840;10.064;2023-09-30T05:45:27;97369.66;;;14.79;100.00
34328;BME280;20588;48.840;10.064;2023-09-30T05:47:54;97358.88;;;14.82;100.00
34328;BME280;20588;48.840;10.064;2023-09-30T05:50:22;97367.78;;;14.86;100.00
34328;BME280;20588;48.840;10.064;2023-09-30T05:52:53;97367.94;;;14.91;100.00
34328;BME280;20588;48.840;10.064;2023-09-30T05:55:19;97354.50;;;15.01;100.00
34328;BME280;20588;48.840;10.064;2023-09-30T05:57:49;97354.38;;;15.07;100.00
34328;BME280;20588;48.840;10.064;2023-09-30T06:00:16;97351.94;;;15.12;100.00
34328;BME280;20588;48.840;10.064;2023-09-30T06:02:56;97354.69;;;15.17;100.00
34328;BME280;20588;48.840;10.064;2023-09-30T06:05:23;97356.63;;;15.22;100.00
34328;BME280;20588;48.840;10.064;2023-09-30T06:07:49;97359.13;;;15.28;100.00
34328;BME280;20588;48.840;10.064;2023-09-30T06:10:16;97372.47;;;15.32;100.00
34328;BME280;20588;48.840;10.064;2023-09-30T06:12:43;97378.00;;;15.35;100.00
34328;BME280;20588;48.840;10.064;2023-09-30T06:15:09;97371.63;;;15.38;100.00
34328;BME280;20588;48.840;10.064;2023-09-30T06:17:36;97370.59;;;15.39;100.00
34328;BME280;20588;48.840;10.064;2023-09-30T06:20:05;97368.38;;;15.42;100.00
34328;BME280;20588;48.840;10.064;2023-09-30T06:22:34;97375.72;;;15.45;100.00
34328;BME280;20588;48.840;10.064;2023-09-30T06:25:01;97378.88;;;15.47;100.00
34328;BME280;20588;48.840;10.064;2023-09-30T06:27:29;97399.19;;;15.50;100.00
34328;BME280;20588;48.840;10.064;2023-09-30T06:29:55;97398.53;;;15.55;100.00
34328;BME280;20588;48.840;10.064;2023-09-30T06:32:21;97398.31;;;15.56;100.00
34328;BME280;20588;48.840;10.064;2023-09-30T06:34:47;97408.25;;;15.59;100.00
34328;BME280;20588;48.840;10.064;2023-09-30T06:37:14;97413.59;;;15.64;100.00
34328;BME280;20588;48.840;10.064;2023-09-30T06:39:41;97408.31;;;15.71;100.00
34328;BME280;20588;48.840;10.064;2023-09-30T06:42:07;97413.41;;;15.77;100.00
34328;BME280;20588;48.840;10.064;2023-09-30T06:44:33;97421.56;;;15.81;100.00
34328;BME280;20588;48.840;10.064;2023-09-30T06:46:59;97417.94;;;15.82;100.00
34328;BME280;20588;48.840;10.064;2023-09-30T06:49:26;97428.69;;;15.85;100.00
34328;BME280;20588;48.840;10.064;2023-09-30T06:51:52;97434.00;;;15.90;100.00
34328;BME280;20588;48.840;10.064;2023-09-30T06:54:18;97442.28;;;15.99;100.00
34328;BME280;20588;48.840;10.064;2023-09-30T06:56:44;97436.44;;;16.03;100.00
34328;BME280;20588;48.840;10.064;2023-09-30T06:59:10;97428.09;;;16.13;100.00
34328;BME280;20588;48.840;10.064;2023-09-30T07:01:37;97443.59;;;16.19;100.00
34328;BME280;20588;48.840;10.064;2023-09-30T07:04:03;97457.06;;;16.28;100.00
34328;BME280;20588;48.840;10.064;2023-09-30T07:06:29;97461.16;;;16.36;100.00
34328;BME280;20588;48.840;10.064;2023-09-30T07:08:55;97455.63;;;16.44;100.00
34328;BME280;20588;48.840;10.064;2023-09-30T07:11:31;97455.91;;;16.65;100.00
34328;BME280;20588;48.840;10.064;2023-09-30T07:14:00;97448.78;;;16.95;100.00
34328;BME280;20588;48.840;10.064;2023-09-30T07:16:26;97462.78;;;17.40;100.00
34328;BME280;20588;48.840;10.064;2023-09-30T07:18:52;97456.22;;;17.89;100.00
34328;BME280;20588;48.840;10.064;2023-09-30T07:21:18;97461.84;;;18.26;100.00
34328;BME280;20588;48.840;10.064;2023-09-30T07:23:44;97450.91;;;18.40;99.65
34328;BME280;20588;48.840;10.064;2023-09-30T07:26:11;97454.38;;;18.46;97.76
34328;BME280;20588;48.840;10.064;2023-09-30T07:28:37;97444.53;;;18.48;96.43
34328;BME280;20588;48.840;10.064;2023-09-30T07:31:03;97441.28;;;18.57;96.03
34328;BME280;20588;48.840;10.064;2023-09-30T07:33:29;97444.34;;;18.71;94.96
34328;BME280;20588;48.840;10.064;2023-09-30T07:35:55;97452.72;;;18.89;93.36
34328;BME280;20588;48.840;10.064;2023-09-30T07:38:21;97460.53;;;19.06;90.80
34328;BME280;20588;48.840;10.064;2023-09-30T07:40:48;97471.84;;;19.28;89.16
34328;BME280;20588;48.840;10.064;2023-09-30T07:43:15;97477.94;;;19.55;87.28
34328;BME280;20588;48.840;10.064;2023-09-30T07:45:41;97482.47;;;19.86;85.42
34328;BME280;20588;48.840;10.064;2023-09-30T07:48:09;97475.28;;;20.20;82.35
34328;BME280;20588;48.840;10.064;2023-09-30T07:50:36;97475.66;;;20.60;80.50
34328;BME280;20588;48.840;10.064;2023-09-30T07:53:03;97480.97;;;21.01;78.15
34328;BME280;20588;48.840;10.064;2023-09-30T07:55:30;97483.59;;;21.43;74.18
34328;BME280;20588;48.840;10.064;2023-09-30T07:57:57;97473.84;;;21.95;71.86
34328;BME280;20588;48.840;10.064;2023-09-30T08:00:25;97482.63;;;22.46;68.96
34328;BME280;20588;48.840;10.064;2023-09-30T08:02:51;97476.34;;;22.72;65.87
34328;BME280;20588;48.840;10.064;2023-09-30T08:05:17;97476.56;;;23.05;63.59
34328;BME280;20588;48.840;10.064;2023-09-30T08:07:43;97478.91;;;23.42;61.39
34328;BME280;20588;48.840;10.064;2023-09-30T08:10:10;97475.31;;;23.87;58.99
34328;BME280;20588;48.840;10.064;2023-09-30T08:12:39;97485.03;;;24.40;57.41
34328;BME280;20588;48.840;10.064;2023-09-30T08:15:06;97489.88;;;25.24;54.67
34328;BME280;20588;48.840;10.064;2023-09-30T08:17:32;97491.63;;;26.04;51.08
34328;BME280;20588;48.840;10.064;2023-09-30T08:19:59;97495.78;;;26.28;51.13
34328;BME280;20588;48.840;10.064;2023-09-30T08:22:26;97495.63;;;27.67;48.20
34328;BME280;20588;48.840;10.064;2023-09-30T08:24:54;97483.16;;;29.10;44.25
34328;BME280;20588;48.840;10.064;2023-09-30T08:27:20;97472.75;;;30.34;41.85
34328;BME280;20588;48.840;10.064;2023-09-30T08:29:46;97466.13;;;31.00;40.06
34328;BME280;20588;48.840;10.064;2023-09-30T08:32:12;97471.13;;;31.48;38.91
34328;BME280;20588;48.840;10.064;2023-09-30T08:34:38;97475.91;;;32.00;37.67
34328;BME280;20588;48.840;10.064;2023-09-30T08:37:05;97473.84;;;32.47;35.58
34328;BME280;20588;48.840;10.064;2023-09-30T08:39:31;97474.56;;;32.88;36.01
34328;BME280;20588;48.840;10.064;2023-09-30T08:41:57;97480.91;;;33.41;35.61
34328;BME280;20588;48.840;10.064;2023-09-30T08:44:23;97480.56;;;33.54;33.94
34328;BME280;20588;48.840;10.064;2023-09-30T08:46:51;97476.34;;;33.89;34.38
34328;BME280;20588;48.840;10.064;2023-09-30T08:49:18;97475.78;;;34.08;33.80
34328;BME280;20588;48.840;10.064;2023-09-30T08:51:45;97464.22;;;33.56;34.80
34328;BME280;20588;48.840;10.064;2023-09-30T08:54:15;97462.22;;;32.63;34.97
34328;BME280;20588;48.840;10.064;2023-09-30T08:56:41;97450.38;;;31.62;36.60
34328;BME280;20588;48.840;10.064;2023-09-30T08:59:12;97446.16;;;30.77;37.44
34328;BME280;20588;48.840;10.064;2023-09-30T09:01:38;97452.22;;;29.84;38.55
34328;BME280;20588;48.840;10.064;2023-09-30T09:04:05;97448.06;;;29.60;39.29
34328;BME280;20588;48.840;10.064;2023-09-30T09:06:32;97450.97;;;31.00;37.80
34328;BME280;20588;48.840;10.064;2023-09-30T09:09:17;97456.94;;;32.75;35.38
34328;BME280;20588;48.840;10.064;2023-09-30T09:11:45;97453.94;;;34.06;34.29
34328;BME280;20588;48.840;10.064;2023-09-30T09:14:11;97447.44;;;35.17;32.25
34328;BME280;20588;48.840;10.064;2023-09-30T09:16:37;97444.91;;;35.86;31.31
34328;BME280;20588;48.840;10.064;2023-09-30T09:19:16;97451.50;;;36.08;30.75
34328;BME280;20588;48.840;10.064;2023-09-30T09:21:59;97448.31;;;35.52;31.32
34328;BME280;20588;48.840;10.064;2023-09-30T09:24:36;97444.50;;;35.22;30.25
34328;BME280;20588;48.840;10.064;2023-09-30T09:27:12;97448.63;;;35.04;31.37
34328;BME280;20588;48.840;10.064;2023-09-30T09:29:39;97460.22;;;35.24;31.83
34328;BME280;20588;48.840;10.064;2023-09-30T09:32:09;97457.78;;;34.88;31.53
34328;BME280;20588;48.840;10.064;2023-09-30T09:34:36;97452.13;;;34.49;32.10
34328;BME280;20588;48.840;10.064;2023-09-30T09:37:21;97446.41;;;33.48;32.68
34328;BME280;20588;48.840;10.064;2023-09-30T09:39:57;97445.84;;;32.53;33.89
34328;BME280;20588;48.840;10.064;2023-09-30T09:42:33;97447.22;;;32.18;34.19
34328;BME280;20588;48.840;10.064;2023-09-30T09:45:04;97453.13;;;32.03;34.63
34328;BME280;20588;48.840;10.064;2023-09-30T09:47:32;97452.88;;;32.16;34.97
34328;BME280;20588;48.840;10.064;2023-09-30T09:49:59;97455.53;;;32.16;35.29
34328;BME280;20588;48.840;10.064;2023-09-30T09:52:26;97458.66;;;31.69;35.28
34328;BME280;20588;48.840;10.064;2023-09-30T09:54:53;97461.56;;;31.09;35.89
34328;BME280;20588;48.840;10.064;2023-09-30T09:57:20;97454.78;;;30.40;36.84
34328;BME280;20588;48.840;10.064;2023-09-30T09:59:46;97455.03;;;30.04;36.70
34328;BME280;20588;48.840;10.064;2023-09-30T10:02:15;97454.44;;;30.16;37.46
34328;BME280;20588;48.840;10.064;2023-09-30T10:04:45;97457.25;;;30.45;37.93
34328;BME280;20588;48.840;10.064;2023-09-30T10:07:17;97454.00;;;30.39;37.50
34328;BME280;20588;48.840;10.064;2023-09-30T10:09:47;97451.16;;;30.19;37.95
34328;BME280;20588;48.840;10.064;2023-09-30T10:12:16;97451.59;;;30.04;38.17
34328;BME280;20588;48.840;10.064;2023-09-30T10:14:42;97444.88;;;29.89;36.32
34328;BME280;20588;48.840;10.064;2023-09-30T10:17:08;97429.91;;;29.37;37.96
34328;BME280;20588;48.840;10.064;2023-09-30T10:19:34;97425.97;;;29.26;37.99
34328;BME280;20588;48.840;10.064;2023-09-30T10:22:19;97431.25;;;29.65;38.37
34328;BME280;20588;48.840;10.064;2023-09-30T10:24:48;97435.38;;;30.14;37.41
34328;BME280;20588;48.840;10.064;2023-09-30T10:27:28;97429.88;;;30.70;37.27
34328;BME280;20588;48.840;10.064;2023-09-30T10:29:59;97429.19;;;30.98;36.62
34328;BME280;20588;48.840;10.064;2023-09-30T10:35:20;97430.00;;;30.99;36.77
34328;BME280;20588;48.840;10.064;2023-09-30T10:37:47;97423.94;;;30.64;36.50
34328;BME280;20588;48.840;10.064;2023-09-30T10:40:30;97438.50;;;30.33;36.01
34328;BME280;20588;48.840;10.064;2023-09-30T10:42:57;97439.16;;;30.21;36.67
34328;BME280;20588;48.840;10.064;2023-09-30T10:51:03;97446.56;;;28.98;38.28
34328;BME280;20588;48.840;10.064;2023-09-30T10:53:43;97446.31;;;28.56;38.90
34328;BME280;20588;48.840;10.064;2023-09-30T10:56:11;97442.66;;;28.30;39.45
34328;BME280;20588;48.840;10.064;2023-09-30T10:58:50;97436.50;;;28.21;39.73
34328;BME280;20588;48.840;10.064;2023-09-30T11:01:21;97433.28;;;28.46;40.36
34328;BME280;20588;48.840;10.064;2023-09-30T11:03:48;97421.97;;;28.54;40.22
34328;BME280;20588;48.840;10.064;2023-09-30T11:06:19;97426.81;;;28.16;40.95
34328;BME280;20588;48.840;10.064;2023-09-30T11:08:54;97419.50;;;27.86;41.38
34328;BME280;20588;48.840;10.064;2023-09-30T11:11:36;97412.53;;;27.41;42.16
34328;BME280;20588;48.840;10.064;2023-09-30T11:14:03;97406.03;;;26.93;42.05
34328;BME280;20588;48.840;10.064;2023-09-30T11:16:43;97406.31;;;26.59;43.90
34328;BME280;20588;48.840;10.064;2023-09-30T11:19:10;97399.53;;;26.21;43.74
34328;BME280;20588;48.840;10.064;2023-09-30T11:21:37;97407.97;;;26.04;43.50
34328;BME280;20588;48.840;10.064;2023-09-30T11:24:04;97396.53;;;25.90;43.45
34328;BME280;20588;48.840;10.064;2023-09-30T11:26:32;97386.28;;;25.70;43.35
34328;BME280;20588;48.840;10.064;2023-09-30T11:29:17;97386.09;;;25.62;44.48
34328;BME280;20588;48.840;10.064;2023-09-30T11:31:49;97381.47;;;26.28;44.90
34328;BME280;20588;48.840;10.064;2023-09-30T11:34:17;97369.78;;;27.07;42.46
34328;BME280;20588;48.840;10.064;2023-09-30T11:36:52;97372.38;;;27.88;40.31
34328;BME280;20588;48.840;10.064;2023-09-30T11:39:29;97379.88;;;28.30;39.04
34328;BME280;20588;48.840;10.064;2023-09-30T11:41:56;97378.88;;;28.04;38.99
34328;BME280;20588;48.840;10.064;2023-09-30T11:44:24;97387.22;;;27.62;39.73
34328;BME280;20588;48.840;10.064;2023-09-30T11:46:53;97380.50;;;27.29;40.73
34328;BME280;20588;48.840;10.064;2023-09-30T11:49:31;97370.88;;;27.06;42.10
34328;BME280;20588;48.840;10.064;2023-09-30T11:52:03;97376.44;;;26.91;42.37
34328;BME280;20588;48.840;10.064;2023-09-30T11:54:33;97370.97;;;26.87;41.52
34328;BME280;20588;48.840;10.064;2023-09-30T11:57:00;97374.59;;;26.78;41.90
34328;BME280;20588;48.840;10.064;2023-09-30T11:59:26;97374.19;;;26.84;41.82
34328;BME280;20588;48.840;10.064;2023-09-30T12:01:52;97378.41;;;26.72;41.53
34328;BME280;20588;48.840;10.064;2023-09-30T12:04:19;97368.75;;;26.62;41.68
34328;BME280;20588;48.840;10.064;2023-09-30T12:06:46;97378.69;;;26.70;41.63
34328;BME280;20588;48.840;10.064;2023-09-30T12:09:15;97381.75;;;26.91;41.22
34328;BME280;20588;48.840;10.064;2023-09-30T12:11:48;97381.66;;;27.23;40.71
34328;BME280;20588;48.840;10.064;2023-09-30T12:14:14;97393.63;;;27.83;40.07
34328;BME280;20588;48.840;10.064;2023-09-30T12:16:41;97401.41;;;28.37;37.13
34328;BME280;20588;48.840;10.064;2023-09-30T12:19:10;97397.75;;;28.47;38.51
34328;BME280;20588;48.840;10.064;2023-09-30T12:21:36;97390.84;;;28.59;38.18
34328;BME280;20588;48.840;10.064;2023-09-30T12:24:03;97380.41;;;28.41;37.60
34328;BME280;20588;48.840;10.064;2023-09-30T12:26:30;97384.00;;;28.45;37.66
34328;BME280;20588;48.840;10.064;2023-09-30T12:28:57;97383.00;;;28.54;39.63
34328;BME280;20588;48.840;10.064;2023-09-30T12:31:23;97392.75;;;28.67;40.21
34328;BME280;20588;48.840;10.064;2023-09-30T12:33:49;97395.78;;;28.83;40.27
34328;BME280;20588;48.840;10.064;2023-09-30T12:36:21;97383.34;;;28.92;39.20
34328;BME280;20588;48.840;10.064;2023-09-30T12:38:47;97385.75;;;29.02;38.37
34328;BME280;20588;48.840;10.064;2023-09-30T12:41:14;97381.59;;;29.09;38.00
34328;BME280;20588;48.840;10.064;2023-09-30T12:43:41;97370.97;;;29.09;38.43
34328;BME280;20588;48.840;10.064;2023-09-30T12:46:08;97367.34;;;29.05;37.94
34328;BME280;20588;48.840;10.064;2023-09-30T12:48:34;97370.38;;;28.82;39.00
34328;BME280;20588;48.840;10.064;2023-09-30T12:51:01;97364.44;;;28.85;39.46
34328;BME280;20588;48.840;10.064;2023-09-30T12:53:30;97367.09;;;28.54;38.28
34328;BME280;20588;48.840;10.064;2023-09-30T12:55:56;97361.22;;;28.35;38.54
34328;BME280;20588;48.840;10.064;2023-09-30T12:58:22;97360.84;;;28.06;37.94